Santa Fe Municipal Airport
KSAF : now visible

Airfield :











YOU CAN JOIN US ON...

 
LOGIN :

Register | Disclaimer

   EN    FR    IT 

 









Legend :    VFR   Marginal VFR   IFR   Intensive IFR   Very Intensive IFR
Visi :
Ceiling :
>= 8 km
>= 3000ft
5 to 8 km
1000 to 3000 ft
1500m to 5 km
500 to 1000 ft
800 to 1500m
200 to 500 ft
< 800m
< 200 ft
Symbols :   Thunderstorms  Fog  Heavy snow  Heavy precipitations  Wind > 20 kt






- Airport Elevation : 6348 ft


KSAF - Santa Fe Municipal

CURRENT METAR :
  • 121753Z 25006KT 10SM CLR 05/M04 A3024 RMK AO2 SLP223 T00501044 10056 21039 50003

EXPIRED METARs :
  • 121653Z 33005KT 10SM CLR 03/M05 A3024 RMK AO2 SLP232 T00331050
  • 121553Z 26003KT 10SM CLR 01/M03 A3025 RMK AO2 SLP241 T00111028

TAF KSAF
Valid from the 12 at 18:00 until the 13 at 18:00 UTC


121720Z 1218/1318 27010KT P6SM SKC
FM130100 32007KT P6SM SCT250
FM131700 24007G14KT P6SM SCT200



MET'MAP, your aeronautical weather chart ! - Copyright ORBIFLY December 2007 - Disclaimer

ORBIFLY MET'MAP TEAM :

Programming & Development : Alexandra Zaïnal
Concept & original design : Baudouin d'Aumeries
Assistance for programming : Marc-Olivier Méhu
Technical & hardware support : Manuel Goepfert

Contact : metmap@orbifly.com




SOURCES & CREDITS :

   NOAA       Earth
Advisory